Time;durP1;ratioP1;P1;durP2;ratioP2;P2;SDS_P1;SDS_P2;PMS_P1;PMS_P2;Temp;Humidity;BMP_temperature;BMP_pressure;BME280_temperature;BME280_humidity;BME280_pressure;Samples;Min_cycle;Max_cycle;Signal;HPM_P1;HPM_P2
2022/04/30 00:00:40;;;;;;;24.73;14.77;;;;;;;6.70;60.73;102177.41;5093299;28;20051;-55
2022/04/30 00:03:07;;;;;;;24.55;14.95;;;;;;;6.70;60.39;102168.78;5093111;28;20055;-53
2022/04/30 00:05:34;;;;;;;23.75;14.05;;;;;;;6.68;60.25;102163.59;5090866;28;20063;-55
2022/04/30 00:08:03;;;;;;;25.42;14.70;;;;;;;6.67;60.55;102156.69;5073035;28;20084;-56
2022/04/30 00:10:37;;;;;;;24.80;15.38;;;;;;;6.65;60.24;102160.94;5072904;28;20053;-53
2022/04/30 00:13:03;;;;;;;23.35;13.80;;;;;;;6.61;60.27;102159.97;5072755;28;20060;-55
2022/04/30 00:15:30;;;;;;;24.77;14.60;;;;;;;6.57;59.83;102159.81;5072563;28;20048;-56
2022/04/30 00:17:56;;;;;;;26.85;14.80;;;;;;;6.54;60.01;102162.31;5053746;28;20063;-56
2022/04/30 00:20:24;;;;;;;24.70;15.65;;;;;;;6.51;59.91;102162.22;5053415;28;20053;-56
2022/04/30 00:22:51;;;;;;;23.15;15.65;;;;;;;6.47;60.13;102160.38;5072282;28;20067;-56
2022/04/30 00:25:18;;;;;;;28.42;14.63;;;;;;;6.45;60.23;102159.44;5072555;28;20049;-56
2022/04/30 00:27:46;;;;;;;25.05;14.45;;;;;;;6.44;60.38;102162.84;5072181;28;20481;-56
2022/04/30 00:30:14;;;;;;;25.10;15.52;;;;;;;6.41;60.58;102157.59;5071900;28;20424;-56
2022/04/30 00:32:41;;;;;;;29.65;16.65;;;;;;;6.40;60.56;102161.00;5072261;28;20067;-55
2022/04/30 00:35:08;;;;;;;33.00;18.73;;;;;;;6.40;60.88;102158.44;5076405;28;20057;-55
2022/04/30 00:37:35;;;;;;;34.97;23.15;;;;;;;6.40;60.45;102154.16;5076462;28;20052;-56
2022/04/30 00:40:02;;;;;;;33.30;20.10;;;;;;;6.39;60.32;102161.84;5068523;28;20041;-54
2022/04/30 00:42:28;;;;;;;35.58;21.80;;;;;;;6.38;60.25;102154.94;5096083;28;20062;-56
2022/04/30 00:44:56;;;;;;;31.52;20.85;;;;;;;6.33;60.02;102154.78;5096258;28;20051;-55
2022/04/30 00:47:24;;;;;;;34.63;22.50;;;;;;;6.28;60.11;102157.22;5096387;28;20044;-56
2022/04/30 00:49:51;;;;;;;37.20;21.45;;;;;;;6.24;60.25;102147.66;5096653;28;20044;-56
2022/04/30 00:52:18;;;;;;;30.65;20.58;;;;;;;6.22;60.43;102153.56;5096376;28;20056;-55
2022/04/30 00:54:49;;;;;;;30.20;20.27;;;;;;;6.18;60.25;102147.44;5096595;28;20048;-56
2022/04/30 00:57:20;;;;;;;32.65;19.17;;;;;;;6.13;59.72;102151.56;5096729;28;20651;-55
2022/04/30 00:59:48;;;;;;;31.10;18.63;;;;;;;6.09;59.94;102147.13;5096626;28;20091;-56
2022/04/30 01:02:16;;;;;;;30.75;17.50;;;;;;;6.07;59.89;102148.78;5096660;28;20047;-54
2022/04/30 01:04:42;;;;;;;48.00;24.67;;;;;;;6.05;60.33;102140.16;5096499;28;20075;-56
2022/04/30 01:07:10;;;;;;;45.97;24.42;;;;;;;6.05;60.87;102140.16;5080984;28;20081;-56
2022/04/30 01:09:39;;;;;;;52.13;25.85;;;;;;;6.05;60.97;102140.16;5075907;28;20063;-53
2022/04/30 01:12:10;;;;;;;54.33;25.73;;;;;;;6.05;61.12;102145.28;5075806;28;20056;-54
2022/04/30 01:14:39;;;;;;;42.85;18.88;;;;;;;6.04;60.71;102140.97;5076001;28;20091;-55
2022/04/30 01:17:07;;;;;;;29.85;17.05;;;;;;;6.05;60.96;102149.56;5075725;28;20063;-53
2022/04/30 01:19:37;;;;;;;28.85;17.00;;;;;;;6.03;60.71;102144.38;5070283;28;20052;-55
2022/04/30 01:22:09;;;;;;;25.85;15.82;;;;;;;6.02;60.58;102140.03;5070449;28;20048;-55
2022/04/30 01:24:37;;;;;;;26.67;14.52;;;;;;;5.97;60.33;102144.19;5075703;28;20041;-55
2022/04/30 01:27:06;;;;;;;23.88;14.07;;;;;;;5.98;60.79;102139.06;5075983;28;20091;-56
2022/04/30 01:29:36;;;;;;;24.98;14.88;;;;;;;6.01;61.38;102138.31;5075465;28;20075;-55
2022/04/30 01:37:36;;;;;;;26.67;14.25;;;;;;;5.89;61.32;102143.03;5075429;28;20532;-55
2022/04/30 01:40:07;;;;;;;23.95;13.13;;;;;;;5.96;61.69;102137.28;5067843;28;20053;-55
2022/04/30 01:42:38;;;;;;;26.48;14.25;;;;;;;5.98;60.83;102133.06;5095733;28;20195;-56
2022/04/30 01:45:06;;;;;;;23.00;14.32;;;;;;;5.95;61.26;102135.53;5095021;28;20056;-56
2022/04/30 01:47:36;;;;;;;28.52;15.18;;;;;;;5.95;61.25;102138.97;5095453;28;20055;-56
2022/04/30 01:50:02;;;;;;;27.65;14.52;;;;;;;5.94;61.44;102136.34;5095264;28;20059;-54
2022/04/30 01:52:29;;;;;;;26.45;14.38;;;;;;;5.94;61.56;102141.50;5081706;28;20139;-56
2022/04/30 01:54:56;;;;;;;26.10;15.25;;;;;;;5.92;61.36;102144.03;5074970;28;20067;-56
2022/04/30 01:57:25;;;;;;;24.88;14.27;;;;;;;5.85;60.72;102142.03;5075424;28;20057;-52
2022/04/30 01:59:53;;;;;;;28.48;15.18;;;;;;;5.82;60.68;102135.91;5075252;28;20060;-53
2022/04/30 02:02:22;;;;;;;30.15;17.00;;;;;;;5.79;60.60;102133.25;5075338;28;20048;-55
2022/04/30 02:04:49;;;;;;;31.17;16.90;;;;;;;5.79;60.43;102130.66;5074959;28;20056;-55
2022/04/30 02:07:16;;;;;;;31.13;16.65;;;;;;;5.76;60.53;102131.44;5074823;28;20044;-56
2022/04/30 02:09:43;;;;;;;30.13;17.63;;;;;;;5.72;60.73;102124.41;5074771;28;20068;-56
2022/04/30 02:12:10;;;;;;;33.00;17.95;;;;;;;5.70;60.82;102121.78;5055077;28;20049;-56
2022/04/30 02:14:42;;;;;;;36.72;19.30;;;;;;;5.68;60.82;102123.44;5054661;28;20049;-56
2022/04/30 02:17:11;;;;;;;43.97;22.92;;;;;;;5.63;61.16;102125.00;5054804;28;20072;-56
2022/04/30 02:22:21;;;;;;;41.45;20.02;;;;;;;5.60;61.43;102124.88;5073094;28;20087;-55
2022/04/30 02:24:49;;;;;;;38.58;20.30;;;;;;;5.58;61.05;102121.38;5059105;28;20107;-56
2022/04/30 02:27:17;;;;;;;49.30;19.48;;;;;;;5.55;61.08;102118.72;5069788;28;20060;-56
2022/04/30 02:29:45;;;;;;;33.20;18.65;;;;;;;5.53;61.58;102114.34;5055353;28;20465;-53
2022/04/30 02:32:11;;;;;;;36.28;18.08;;;;;;;5.49;61.43;102115.06;5054043;28;20578;-53
2022/04/30 02:34:38;;;;;;;29.35;17.13;;;;;;;5.47;61.56;102112.44;5054155;28;20466;-55
2022/04/30 02:37:04;;;;;;;31.13;17.13;;;;;;;5.47;61.34;102107.28;5054600;28;20063;-56
2022/04/30 02:39:31;;;;;;;26.90;15.15;;;;;;;5.47;61.50;102103.84;5054160;28;20080;-56
2022/04/30 02:41:58;;;;;;;25.42;14.68;;;;;;;5.47;61.43;102101.28;5086993;28;20055;-54
2022/04/30 02:44:26;;;;;;;28.33;15.63;;;;;;;5.45;61.02;102106.38;5094483;28;20078;-54
2022/04/30 02:46:55;;;;;;;30.27;16.15;;;;;;;5.43;61.17;102097.72;5094301;28;20135;-56
2022/04/30 02:49:21;;;;;;;40.30;21.20;;;;;;;5.39;61.66;102096.75;5094151;28;20079;-56
2022/04/30 02:51:48;;;;;;;40.75;20.77;;;;;;;5.36;61.64;102099.22;5093834;28;20040;-56
2022/04/30 02:54:15;;;;;;;33.30;18.45;;;;;;;5.34;61.91;102094.84;5093705;28;20410;-53
2022/04/30 02:56:41;;;;;;;29.60;16.23;;;;;;;5.33;61.68;102088.81;5092618;28;20472;-53
2022/04/30 03:01:53;;;;;;;31.80;15.10;;;;;;;5.32;62.28;102093.91;5094215;28;20128;-53
2022/04/30 03:04:20;;;;;;;31.52;17.42;;;;;;;5.31;61.81;102095.59;5090579;28;20045;-52
2022/04/30 03:06:47;;;;;;;26.83;14.68;;;;;;;5.27;62.01;102093.75;5073974;28;20063;-56
2022/04/30 03:09:14;;;;;;;37.05;17.02;;;;;;;5.29;63.05;102091.25;5074109;28;20044;-55
2022/04/30 03:11:40;;;;;;;31.08;13.93;;;;;;;5.32;63.07;102086.19;5073909;28;20071;-55
2022/04/30 03:14:07;;;;;;;26.75;12.63;;;;;;;5.36;63.17;102088.94;5073856;28;20048;-56
2022/04/30 03:22:03;;;;;;;36.80;15.82;;;;;;;5.35;62.20;102092.31;5053356;28;20179;-55
2022/04/30 03:24:31;;;;;;;34.20;15.43;;;;;;;5.31;61.85;102089.59;5068224;28;20048;-56
2022/04/30 03:26:58;;;;;;;29.92;15.10;;;;;;;5.24;62.38;102087.63;5073667;28;20056;-55
2022/04/30 03:29:24;;;;;;;27.27;15.25;;;;;;;5.21;62.01;102087.53;5073744;28;20087;-56
2022/04/30 03:31:51;;;;;;;34.08;16.00;;;;;;;5.19;62.30;102089.13;5073544;28;20053;-54
2022/04/30 03:34:19;;;;;;;32.35;16.30;;;;;;;5.20;62.69;102085.75;5073576;28;20048;-55
2022/04/30 03:36:45;;;;;;;40.15;18.80;;;;;;;5.21;62.80;102087.53;5073335;28;20052;-55
2022/04/30 03:39:12;;;;;;;30.08;16.77;;;;;;;5.26;63.10;102086.00;5072532;28;20239;-56
2022/04/30 03:41:39;;;;;;;35.55;16.88;;;;;;;5.31;63.43;102089.59;5081047;28;20048;-57
2022/04/30 03:44:07;;;;;;;31.25;14.63;;;;;;;5.38;64.03;102096.69;5093858;28;20265;-55
2022/04/30 03:46:34;;;;;;;30.25;14.60;;;;;;;5.46;63.92;102084.09;5093781;28;20048;-55
2022/04/30 03:49:01;;;;;;;29.17;13.88;;;;;;;5.54;64.41;102092.94;5093390;28;20362;-55
2022/04/30 03:51:29;;;;;;;21.40;11.98;;;;;;;5.61;64.28;102093.19;5093346;28;20063;-55
2022/04/30 03:53:55;;;;;;;24.00;12.27;;;;;;;5.67;64.84;102090.81;5093657;28;20052;-55
2022/04/30 03:56:24;;;;;;;29.45;13.77;;;;;;;5.78;64.40;102092.91;5093667;28;20052;-54
2022/04/30 03:58:51;;;;;;;27.80;13.15;;;;;;;5.86;64.83;102096.59;5093638;28;20166;-53
2022/04/30 04:01:19;;;;;;;24.25;13.48;;;;;;;5.92;64.61;102097.69;5083853;28;20087;-54
2022/04/30 04:03:46;;;;;;;29.58;13.98;;;;;;;6.05;64.06;102100.66;5072987;28;20088;-54
2022/04/30 04:06:15;;;;;;;32.80;13.02;;;;;;;6.14;64.40;102099.25;5072792;28;20392;-54
2022/04/30 04:08:43;;;;;;;29.63;13.48;;;;;;;6.27;63.81;102100.53;5072744;28;20492;-56
2022/04/30 04:11:13;;;;;;;34.88;14.20;;;;;;;6.39;63.70;102105.19;5072729;28;20060;-55
2022/04/30 04:19:07;;;;;;;20.35;11.73;;;;;;;6.85;64.08;102118.59;5072721;28;20145;-54
2022/04/30 04:21:34;;;;;;;25.27;12.30;;;;;;;6.97;63.49;102108.63;5072688;28;20059;-55
2022/04/30 04:26:45;;;;;;;23.23;13.32;;;;;;;7.25;63.23;102109.38;5073094;28;20075;-54
2022/04/30 04:29:13;;;;;;;29.30;13.60;;;;;;;7.42;63.25;102115.03;5072587;28;20382;-56
2022/04/30 04:31:40;;;;;;;27.95;13.30;;;;;;;7.57;62.85;102113.69;5072803;28;20052;-56
2022/04/30 04:34:06;;;;;;;26.92;13.77;;;;;;;7.74;63.03;102116.72;5072698;28;20390;-56
2022/04/30 04:36:32;;;;;;;24.00;13.35;;;;;;;7.96;62.76;102112.97;5072639;28;20501;-57
2022/04/30 04:38:59;;;;;;;22.52;12.05;;;;;;;8.19;62.28;102110.91;5072761;28;20060;-54
2022/04/30 04:41:27;;;;;;;26.50;12.60;;;;;;;8.43;62.07;102111.53;5077811;28;20051;-55
2022/04/30 04:43:53;;;;;;;24.52;13.20;;;;;;;8.67;61.96;102107.72;5092995;28;20067;-53
2022/04/30 04:46:20;;;;;;;25.65;13.25;;;;;;;8.87;61.30;102098.69;5092890;28;20056;-54
2022/04/30 04:48:47;;;;;;;28.67;14.48;;;;;;;9.06;60.66;102095.63;5093147;28;20121;-55
2022/04/30 04:51:13;;;;;;;28.55;15.43;;;;;;;9.29;60.83;102093.47;5092548;28;20048;-56
2022/04/30 04:53:40;;;;;;;32.17;16.60;;;;;;;9.55;60.21;102091.38;5092893;28;20062;-55
2022/04/30 04:56:06;;;;;;;39.35;17.42;;;;;;;9.83;59.57;102092.69;5092444;28;20542;-56
2022/04/30 04:58:34;;;;;;;31.15;17.30;;;;;;;10.06;59.03;102088.75;5074622;28;20067;-54
2022/04/30 05:01:01;;;;;;;31.77;16.63;;;;;;;10.31;58.43;102102.09;5072574;28;20048;-56
2022/04/30 05:03:27;;;;;;;30.60;15.85;;;;;;;10.55;58.23;102094.69;5072687;28;20095;-56
2022/04/30 05:05:53;;;;;;;31.27;15.00;;;;;;;10.79;57.43;102088.06;5072465;28;20053;-53
2022/04/30 05:08:20;;;;;;;28.50;16.27;;;;;;;10.99;57.37;102094.38;5072659;28;20060;-55
2022/04/30 05:10:46;;;;;;;25.48;14.77;;;;;;;11.25;56.56;102095.53;5072509;28;20056;-56
2022/04/30 05:13:13;;;;;;;22.15;12.52;;;;;;;11.50;56.69;102088.00;5072518;28;20056;-54
2022/04/30 05:15:41;;;;;;;22.73;11.70;;;;;;;11.78;55.69;102095.22;5068968;28;20048;-55
2022/04/30 05:18:08;;;;;;;20.08;10.18;;;;;;;11.98;55.45;102088.47;5052488;28;20425;-56
2022/04/30 05:20:35;;;;;;;15.10;9.63;;;;;;;12.19;55.40;102086.88;5058096;28;20053;-56
2022/04/30 05:23:01;;;;;;;20.13;10.60;;;;;;;12.40;55.37;102086.97;5075736;28;20048;-57
2022/04/30 05:25:27;;;;;;;19.95;9.00;;;;;;;12.63;54.94;102080.19;5075573;28;20478;-54
2022/04/30 05:27:54;;;;;;;16.83;8.32;;;;;;;12.85;55.00;102075.06;5076025;28;20063;-54
2022/04/30 05:30:20;;;;;;;10.13;4.93;;;;;;;13.04;54.79;102076.88;5075489;28;20059;-53
2022/04/30 05:32:48;;;;;;;8.32;4.80;;;;;;;13.24;54.39;102085.63;5075157;28;20052;-56
2022/04/30 05:35:15;;;;;;;8.88;4.05;;;;;;;13.39;54.06;102078.72;5075870;28;20063;-56
2022/04/30 05:37:41;;;;;;;9.68;4.15;;;;;;;13.58;53.89;102076.16;5075750;28;20052;-56
2022/04/30 05:40:09;;;;;;;7.95;3.65;;;;;;;13.76;53.79;102080.50;5068481;28;20056;-55
2022/04/30 05:42:35;;;;;;;5.53;3.50;;;;;;;13.93;53.44;102082.22;5095889;28;20047;-56
2022/04/30 05:45:02;;;;;;;4.75;2.85;;;;;;;14.13;53.00;102090.91;5096072;28;20051;-56
2022/04/30 05:47:28;;;;;;;5.90;3.55;;;;;;;14.28;52.38;102087.38;5095682;28;20361;-56
2022/04/30 05:49:56;;;;;;;6.65;3.53;;;;;;;14.33;51.94;102094.34;5095908;28;20063;-53
2022/04/30 05:52:23;;;;;;;6.05;3.28;;;;;;;14.45;51.49;102094.31;5095620;28;20048;-53
2022/04/30 05:54:49;;;;;;;6.38;3.20;;;;;;;14.56;51.13;102096.03;5077387;28;20052;-54
2022/04/30 05:57:15;;;;;;;5.57;2.88;;;;;;;14.68;50.52;102104.72;5075001;28;20470;-52
2022/04/30 05:59:42;;;;;;;4.05;2.47;;;;;;;14.74;49.87;102103.81;5074885;28;20473;-53
2022/04/30 06:02:08;;;;;;;4.97;2.35;;;;;;;14.84;49.51;102113.34;5075254;28;20087;-54
2022/04/30 06:04:35;;;;;;;5.32;2.22;;;;;;;14.92;49.09;102113.31;5075305;28;20048;-56
2022/04/30 06:07:03;;;;;;;4.65;2.10;;;;;;;14.97;48.64;102112.41;5074875;28;20505;-56
2022/04/30 06:09:29;;;;;;;8.70;2.65;;;;;;;15.09;48.06;102112.38;5074932;28;20048;-56
2022/04/30 06:11:56;;;;;;;5.82;2.33;;;;;;;15.20;47.60;102104.47;5075109;28;20044;-56
2022/04/30 06:14:22;;;;;;;12.75;2.92;;;;;;;15.32;47.19;102111.38;5075134;28;20052;-56
2022/04/30 06:16:49;;;;;;;5.03;2.50;;;;;;;15.36;46.20;102107.88;5074476;28;20500;-56
2022/04/30 06:19:15;;;;;;;7.20;2.85;;;;;;;15.41;46.08;102111.31;5074879;28;20064;-53
2022/04/30 06:21:43;;;;;;;6.80;3.40;;;;;;;15.42;45.60;102103.47;5074648;28;20052;-56
2022/04/30 06:24:12;;;;;;;6.88;3.42;;;;;;;15.46;44.67;102104.31;5074990;28;20058;-57
2022/04/30 06:26:38;;;;;;;4.75;2.72;;;;;;;15.49;44.98;102101.69;5074272;28;20072;-56
2022/04/30 06:29:05;;;;;;;5.93;2.75;;;;;;;15.57;44.05;102105.09;5074452;28;20400;-56
2022/04/30 06:31:32;;;;;;;4.85;2.75;;;;;;;15.63;44.24;102102.50;5074433;28;20102;-56
2022/04/30 06:33:58;;;;;;;8.25;3.45;;;;;;;15.67;43.54;102105.97;5073782;28;20403;-56
2022/04/30 06:36:25;;;;;;;8.13;4.15;;;;;;;15.63;43.23;102107.72;5063109;28;20068;-55
2022/04/30 06:38:52;;;;;;;8.68;3.25;;;;;;;15.69;42.79;102118.13;5061555;28;20048;-54
2022/04/30 06:41:21;;;;;;;7.47;3.17;;;;;;;15.72;41.96;102115.50;5066358;28;20048;-55
2022/04/30 06:43:49;;;;;;;13.18;3.40;;;;;;;15.83;41.67;102119.78;5064240;28;20053;-54
2022/04/30 06:46:16;;;;;;;5.28;3.00;;;;;;;15.91;40.82;102117.97;5062859;28;20060;-54
2022/04/30 06:48:44;;;;;;;6.07;3.35;;;;;;;15.97;40.79;102118.78;5062174;28;20055;-56
2022/04/30 06:51:11;;;;;;;6.97;3.22;;;;;;;16.11;40.51;102116.03;5061619;28;20059;-53
2022/04/30 06:59:10;;;;;;;4.75;2.97;;;;;;;16.54;39.50;102106.00;5063775;28;20119;-55
2022/04/30 07:01:43;;;;;;;6.30;3.05;;;;;;;16.75;39.25;102098.84;5063103;28;20041;-55
2022/04/30 07:04:10;;;;;;;6.78;3.60;;;;;;;16.94;38.91;102100.31;5062016;28;20156;-55
2022/04/30 07:06:38;;;;;;;6.07;3.55;;;;;;;17.11;38.78;102100.09;5063503;28;20135;-56
2022/04/30 07:09:06;;;;;;;7.03;3.33;;;;;;;17.19;38.17;102096.50;5064024;28;20049;-57
2022/04/30 07:11:34;;;;;;;5.63;3.13;;;;;;;17.22;38.43;102100.84;5061522;28;20060;-57
2022/04/30 07:14:01;;;;;;;6.43;3.20;;;;;;;17.25;38.05;102090.31;5062052;28;20048;-54
2022/04/30 07:16:27;;;;;;;4.90;3.08;;;;;;;17.29;38.01;102087.63;5063598;28;20053;-56
2022/04/30 07:18:54;;;;;;;5.45;3.13;;;;;;;17.35;37.75;102097.16;5061996;28;20079;-55
2022/04/30 07:21:20;;;;;;;5.75;3.05;;;;;;;17.39;37.86;102093.59;5056122;28;20044;-54
2022/04/30 07:23:47;;;;;;;5.60;3.15;;;;;;;17.51;37.44;102088.16;5063123;28;20052;-55
2022/04/30 07:26:14;;;;;;;6.20;3.10;;;;;;;17.66;37.23;102087.03;5062192;28;20048;-54
2022/04/30 07:28:41;;;;;;;5.18;2.85;;;;;;;17.81;36.87;102085.97;5062057;28;20048;-57
2022/04/30 07:31:09;;;;;;;5.15;2.78;;;;;;;17.86;36.53;102085.00;5063401;28;20052;-56
2022/04/30 07:33:35;;;;;;;7.30;2.97;;;;;;;17.97;36.33;102087.44;5061738;28;20175;-57
2022/04/30 07:36:03;;;;;;;5.13;3.33;;;;;;;18.13;35.93;102088.88;5060719;28;20675;-56
2022/04/30 07:38:29;;;;;;;5.43;2.78;;;;;;;18.14;35.23;102090.63;5060328;28;20123;-55
2022/04/30 07:40:56;;;;;;;5.78;2.78;;;;;;;18.16;35.38;102073.06;5061866;28;20509;-56
2022/04/30 07:43:22;;;;;;;5.18;2.78;;;;;;;18.20;35.29;102080.00;5061267;28;20041;-57
2022/04/30 07:45:50;;;;;;;5.13;2.42;;;;;;;18.21;34.86;102070.41;5062864;28;20056;-54
2022/04/30 07:48:16;;;;;;;7.97;2.80;;;;;;;18.28;34.32;102072.00;5062400;28;20044;-56
2022/04/30 07:50:44;;;;;;;10.68;2.25;;;;;;;18.41;34.08;102083.13;5063056;28;20048;-55
2022/04/30 07:53:14;;;;;;;4.05;2.22;;;;;;;18.53;33.81;102072.38;5052368;28;20041;-57
2022/04/30 07:55:41;;;;;;;4.70;2.08;;;;;;;18.54;33.04;102068.84;5052080;28;20448;-55
2022/04/30 07:58:07;;;;;;;3.13;1.75;;;;;;;18.58;32.27;102070.53;5051883;28;20649;-57
2022/04/30 08:00:34;;;;;;;3.72;1.60;;;;;;;18.64;32.13;102067.81;5051739;28;20541;-55
2022/04/30 08:03:03;;;;;;;2.25;1.48;;;;;;;18.72;31.50;102071.13;5052028;28;20450;-57
2022/04/30 08:05:30;;;;;;;4.47;1.67;;;;;;;18.86;31.38;102069.09;5053791;28;20041;-53
2022/04/30 08:07:56;;;;;;;2.83;1.23;;;;;;;18.98;30.76;102073.22;5062288;28;20057;-54
2022/04/30 08:10:23;;;;;;;4.07;1.65;;;;;;;19.07;30.51;102074.78;5063158;28;20048;-53
2022/04/30 08:12:53;;;;;;;5.13;1.90;;;;;;;19.20;30.47;102076.22;5063265;28;20450;-56
2022/04/30 08:15:20;;;;;;;3.95;1.10;;;;;;;19.33;29.88;102075.06;5063226;28;20045;-54
2022/04/30 08:17:46;;;;;;;4.43;1.63;;;;;;;19.45;29.56;102074.78;5058698;28;20052;-57
2022/04/30 08:20:14;;;;;;;3.15;1.70;;;;;;;19.49;29.66;102076.41;5063401;28;20420;-56
2022/04/30 08:22:41;;;;;;;7.05;2.20;;;;;;;19.59;29.57;102068.34;5052861;28;20049;-57
2022/04/30 08:25:08;;;;;;;1.98;1.30;;;;;;;19.59;29.42;102074.47;5053497;28;20056;-55
2022/04/30 08:27:35;;;;;;;4.65;1.67;;;;;;;19.57;29.07;102076.25;5063175;28;20373;-57
2022/04/30 08:30:01;;;;;;;3.17;1.95;;;;;;;19.53;29.32;102070.22;5061127;28;20049;-58
2022/04/30 08:32:28;;;;;;;3.15;1.50;;;;;;;19.56;29.46;102063.16;5062924;28;20063;-58
2022/04/30 08:34:54;;;;;;;3.25;1.50;;;;;;;19.59;29.51;102069.19;5052381;28;20465;-58
2022/04/30 08:37:22;;;;;;;3.63;1.98;;;;;;;19.60;29.50;102063.03;5053368;28;20060;-58
2022/04/30 08:39:49;;;;;;;2.80;1.60;;;;;;;19.64;29.46;102061.19;5052971;28;20060;-58
2022/04/30 08:42:17;;;;;;;2.22;1.33;;;;;;;19.64;29.33;102055.94;5083505;28;20084;-54
2022/04/30 08:44:44;;;;;;;2.20;1.30;;;;;;;19.64;29.36;102066.47;5072640;28;20417;-58
2022/04/30 08:47:11;;;;;;;2.95;1.77;;;;;;;19.61;29.28;102066.53;5072562;28;20496;-58
2022/04/30 08:49:41;;;;;;;1.98;1.08;;;;;;;19.66;28.67;102059.38;5072554;28;20481;-56
2022/04/30 08:52:08;;;;;;;2.17;1.30;;;;;;;19.74;28.18;102050.41;5071216;28;20136;-57
2022/04/30 08:54:35;;;;;;;5.57;1.40;;;;;;;19.79;27.61;102050.31;5072851;28;20680;-57
2022/04/30 08:57:02;;;;;;;4.65;1.58;;;;;;;19.79;27.79;102045.03;5074858;28;20463;-54
2022/04/30 08:59:30;;;;;;;1.90;1.27;;;;;;;19.83;28.00;102047.56;5074957;28;20056;-58
2022/04/30 09:01:58;;;;;;;3.13;1.70;;;;;;;19.80;28.49;102052.91;5074977;28;20052;-57
2022/04/30 09:04:25;;;;;;;2.08;1.33;;;;;;;19.73;28.43;102039.91;5074843;28;20056;-58
2022/04/30 09:06:53;;;;;;;2.53;1.42;;;;;;;19.67;28.50;102040.06;5075557;28;20050;-54
2022/04/30 09:09:24;;;;;;;2.55;1.45;;;;;;;19.72;28.55;102041.69;5076118;28;20067;-54
2022/04/30 09:11:56;;;;;;;4.07;1.80;;;;;;;19.74;28.97;102036.38;5076352;28;20044;-58
2022/04/30 09:14:26;;;;;;;2.90;1.75;;;;;;;19.59;28.89;102031.50;5076122;28;20049;-58
2022/04/30 09:17:11;;;;;;;2.92;1.60;;;;;;;19.46;28.45;102033.56;5076390;28;20109;-58
2022/04/30 09:19:48;;;;;;;3.58;1.70;;;;;;;19.36;27.79;102025.03;5075678;28;20049;-58
2022/04/30 09:22:15;;;;;;;2.17;1.25;;;;;;;19.35;28.49;102019.81;5075794;28;20055;-58
2022/04/30 09:24:46;;;;;;;3.03;1.45;;;;;;;19.33;28.73;102014.59;5076064;28;20076;-58
2022/04/30 09:27:15;;;;;;;2.30;1.50;;;;;;;19.41;28.93;102012.63;5076021;28;20139;-58
2022/04/30 09:29:42;;;;;;;3.42;1.80;;;;;;;19.42;28.43;102014.38;5075258;28;20469;-57
2022/04/30 09:32:09;;;;;;;2.78;1.20;;;;;;;19.32;28.66;102018.13;5075906;28;20060;-56
2022/04/30 09:37:42;;;;;;;2.63;1.67;;;;;;;19.07;28.79;102012.56;5075644;28;20063;-55
2022/04/30 09:40:18;;;;;;;3.63;1.50;;;;;;;19.13;28.16;102017.69;5069393;28;20053;-58
2022/04/30 09:42:47;;;;;;;2.63;1.27;;;;;;;19.26;28.96;102020.91;5095819;28;20484;-58
2022/04/30 09:45:24;;;;;;;2.85;1.50;;;;;;;19.46;27.76;102008.13;5095764;28;20082;-56
2022/04/30 09:47:51;;;;;;;2.10;1.17;;;;;;;19.59;27.81;102021.00;5095838;28;20058;-56
2022/04/30 09:55:51;;;;;;;4.00;1.20;;;;;;;19.63;26.92;102014.75;5095345;28;20063;-56
2022/04/30 09:58:23;;;;;;;2.85;1.30;;;;;;;19.74;26.77;102015.34;5095667;28;20056;-58
2022/04/30 10:00:57;;;;;;;5.90;1.50;;;;;;;19.87;26.39;102013.28;5095413;28;20060;-58
2022/04/30 10:03:27;;;;;;;2.95;1.83;;;;;;;20.01;26.64;102014.63;5095611;28;20055;-58
2022/04/30 10:05:59;;;;;;;2.75;1.65;;;;;;;20.04;26.45;102004.00;5089993;28;20385;-58
2022/04/30 10:08:28;;;;;;;5.20;1.70;;;;;;;20.03;27.03;102007.53;5075033;28;20776;-57
2022/04/30 10:11:07;;;;;;;3.08;1.23;;;;;;;20.10;26.57;101993.31;5075310;28;20056;-57
2022/04/30 10:13:47;;;;;;;3.88;1.40;;;;;;;20.20;26.39;102000.94;5075222;28;20040;-58
2022/04/30 10:16:20;;;;;;;2.42;1.25;;;;;;;20.26;26.19;102000.75;5075149;28;20049;-58
2022/04/30 10:18:58;;;;;;;4.60;1.55;;;;;;;20.24;25.83;102005.22;5074708;28;20481;-58
2022/04/30 10:21:25;;;;;;;2.65;1.13;;;;;;;20.20;26.17;101996.53;5051431;28;20055;-58
2022/04/30 10:24:01;;;;;;;4.72;1.40;;;;;;;20.27;26.37;101991.94;5051019;28;20056;-57
2022/04/30 10:26:27;;;;;;;4.95;1.38;;;;;;;20.29;26.74;101992.78;5040294;28;20053;-57
2022/04/30 10:28:59;;;;;;;6.43;1.55;;;;;;;20.35;26.76;101992.63;5037421;28;20477;-58
2022/04/30 10:31:26;;;;;;;3.85;1.40;;;;;;;20.44;26.38;101976.59;5056555;28;20453;-57
2022/04/30 10:33:52;;;;;;;2.42;1.13;;;;;;;20.41;26.01;101971.41;5070311;28;20480;-58
2022/04/30 10:36:21;;;;;;;2.45;1.17;;;;;;;20.34;25.42;101969.84;5056559;28;20051;-56
2022/04/30 10:38:55;;;;;;;2.72;1.27;;;;;;;20.26;25.11;101969.16;5064710;28;20370;-58
2022/04/30 10:41:21;;;;;;;3.13;1.20;;;;;;;20.15;25.61;101970.34;5053697;28;20110;-58
2022/04/30 10:43:48;;;;;;;18.63;3.35;;;;;;;20.07;26.02;101967.06;5054275;28;20056;-58
2022/04/30 10:46:25;;;;;;;2.75;1.30;;;;;;;20.00;25.41;101962.88;5050669;28;20072;-57
2022/04/30 10:48:51;;;;;;;2.72;1.02;;;;;;;19.92;25.86;101954.34;5034171;28;20054;-58
2022/04/30 10:51:34;;;;;;;7.68;1.55;;;;;;;19.85;25.60;101952.78;5034456;28;20061;-58
2022/04/30 10:54:04;;;;;;;1.98;1.15;;;;;;;19.84;26.24;101946.66;5034417;28;20045;-58
2022/04/30 10:56:31;;;;;;;2.20;1.10;;;;;;;19.96;26.28;101948.09;5034516;28;20060;-58
2022/04/30 10:58:57;;;;;;;4.05;1.10;;;;;;;19.96;26.30;101944.59;5034777;28;20069;-56
2022/04/30 11:01:25;;;;;;;4.15;1.80;;;;;;;20.05;26.30;101945.19;5036107;28;20049;-57
2022/04/30 11:03:51;;;;;;;3.85;1.35;;;;;;;20.07;25.77;101939.88;5037351;28;20063;-55
2022/04/30 11:06:19;;;;;;;2.70;1.20;;;;;;;20.09;25.94;101932.81;5042925;28;20048;-54
2022/04/30 11:08:56;;;;;;;1.88;1.10;;;;;;;20.09;25.62;101933.66;5046821;28;20472;-53
2022/04/30 11:11:23;;;;;;;2.10;1.10;;;;;;;20.05;25.98;101929.41;5054506;28;20056;-57
2022/04/30 11:13:55;;;;;;;2.63;1.20;;;;;;;20.04;25.77;101932.06;5054394;28;20068;-56
2022/04/30 11:16:28;;;;;;;3.75;1.30;;;;;;;20.06;25.95;101933.75;5053476;28;20053;-54
2022/04/30 11:19:00;;;;;;;5.88;1.55;;;;;;;20.08;25.48;101939.84;5054149;28;20053;-56
2022/04/30 11:21:31;;;;;;;1.90;0.85;;;;;;;20.01;25.12;101930.41;5041918;28;20430;-58
2022/04/30 11:23:57;;;;;;;2.22;0.80;;;;;;;19.89;24.89;101930.75;5053150;28;20062;-54
2022/04/30 11:26:24;;;;;;;2.10;0.88;;;;;;;19.74;24.82;101928.53;5053485;28;20107;-57
2022/04/30 11:28:51;;;;;;;27.30;3.20;;;;;;;19.66;25.25;101919.97;5054046;28;20056;-58
2022/04/30 11:31:19;;;;;;;4.75;1.30;;;;;;;19.63;25.38;101912.16;5048700;28;20061;-57
2022/04/30 11:33:46;;;;;;;4.50;0.88;;;;;;;19.58;25.39;101922.81;5033725;28;20471;-56
2022/04/30 11:36:14;;;;;;;2.17;1.00;;;;;;;19.50;25.28;101916.88;5033577;28;20406;-57
2022/04/30 11:38:40;;;;;;;2.45;1.00;;;;;;;19.36;25.33;101919.88;5033445;28;20056;-57
2022/04/30 11:41:10;;;;;;;2.42;0.63;;;;;;;19.25;25.16;101924.53;5049267;28;20057;-58
2022/04/30 11:43:36;;;;;;;3.63;1.05;;;;;;;19.16;25.04;101901.09;5053510;28;20049;-58
2022/04/30 11:46:03;;;;;;;2.17;0.90;;;;;;;19.12;25.63;101915.22;5053688;28;20057;-54
2022/04/30 11:48:37;;;;;;;2.10;1.05;;;;;;;19.12;25.97;101905.56;5053483;28;20067;-58
2022/04/30 11:51:04;;;;;;;2.25;1.10;;;;;;;19.13;26.04;101911.69;5053572;28;20431;-55
2022/04/30 11:53:32;;;;;;;2.58;1.08;;;;;;;19.18;26.05;101899.28;5053126;28;20057;-56
2022/04/30 11:55:59;;;;;;;2.78;1.13;;;;;;;19.24;26.00;101904.38;5053362;28;20052;-57
2022/04/30 11:58:26;;;;;;;2.35;0.93;;;;;;;19.24;25.82;101899.13;5052808;28;20514;-58
2022/04/30 12:00:53;;;;;;;2.65;0.93;;;;;;;19.19;25.40;101890.50;5053527;28;20112;-57
2022/04/30 12:03:26;;;;;;;3.78;0.73;;;;;;;19.15;25.56;101894.09;5053104;28;20079;-57